Archival Weather

Fukuoka

Fukuoka, Japan (RJFF)

Report from: Tuesday, August 16, 2022 10:00 AM JST
Current time: Sunday, November 27, 2022 6:49 PM JST

Current weather
Weather history
Weather forecast

Present weatherVCSH, light rain showers
Temperature30.0°C (86.0°F)
Heat index37.5°C (99.5°F)
Dew point26.0°C (78.8°F)
Winds 14 kts (7.2 m/s, 16.1 mph) South-Southeast (160°)
Visibility6.2 mi. (10 km)
Clouds Few clouds 1,000 ft. (305 m)
Few clouds with towering cumulus 3,000 ft. (914 m)
Scattered clouds 3,500 ft. (1,067 m)
Ceiling: Broken clouds 5,000 ft. (1,524 m)
Altimeter29.74 in.Hg (1007 mB)
Relative humidity79 %
Density altitude2,377 ft. (724 m)
Flight conditions Visual Meteorological Conditions
Raw dataRJFF 160100Z 16014KT 9999 VCSH FEW010 FEW030TCU SCT035 BKN050 30/26 Q1007 TEMPO 4000 -SHRA BR
An error has occurred. This application may no longer respond until reloaded. Reload 🗙